createdAt,value
2023-02-28T00:00:42.052Z,7.66
2023-02-28T00:03:12.849Z,7.55
2023-02-28T00:05:44.383Z,7.47
2023-02-28T00:08:15.526Z,7.56
2023-02-28T00:10:54.912Z,7.60
2023-02-28T00:13:26.487Z,7.54
2023-02-28T00:16:06.152Z,7.57
2023-02-28T00:18:36.997Z,7.54
2023-02-28T00:21:06.817Z,7.48
2023-02-28T00:23:36.915Z,7.58
2023-02-28T00:26:06.052Z,7.49
2023-02-28T00:28:37.468Z,7.49
2023-02-28T00:31:10.903Z,7.52
2023-02-28T00:33:40.266Z,7.56
2023-02-28T00:36:12.258Z,7.58
2023-02-28T00:38:41.883Z,7.54
2023-02-28T00:41:12.462Z,7.64
2023-02-28T00:43:44.423Z,7.68
2023-02-28T00:46:13.760Z,7.63
2023-02-28T00:48:50.239Z,7.70
2023-02-28T00:51:26.979Z,7.57
2023-02-28T00:53:58.137Z,7.63
2023-02-28T00:56:27.666Z,7.70
2023-02-28T00:58:57.123Z,7.65
2023-02-28T01:01:32.743Z,7.65
2023-02-28T01:04:03.092Z,7.71
2023-02-28T01:06:34.134Z,7.72
2023-02-28T01:09:03.640Z,7.66
2023-02-28T01:11:32.967Z,7.66
2023-02-28T01:14:02.583Z,7.69
2023-02-28T01:16:31.959Z,7.60
2023-02-28T01:19:04.754Z,7.62
2023-02-28T01:21:38.863Z,7.65
2023-02-28T01:24:12.738Z,7.65
2023-02-28T01:26:43.383Z,7.56
2023-02-28T01:29:13.772Z,7.63
2023-02-28T01:31:43.676Z,7.47
2023-02-28T01:34:12.378Z,7.44
2023-02-28T01:36:43.131Z,7.64
2023-02-28T01:39:15.322Z,7.68
2023-02-28T01:41:44.698Z,7.71
2023-02-28T01:44:51.200Z,7.77
2023-02-28T01:47:20.162Z,7.75
2023-02-28T01:49:49.689Z,7.64
2023-02-28T01:52:19.916Z,7.56
2023-02-28T01:54:54.150Z,7.59
2023-02-28T01:57:24.649Z,7.64
2023-02-28T02:00:00.144Z,7.70
2023-02-28T02:02:29.329Z,7.80
2023-02-28T02:05:20.035Z,7.68
2023-02-28T02:07:50.688Z,7.56
2023-02-28T02:10:25.048Z,7.52
2023-02-28T02:13:21.132Z,7.56
2023-02-28T02:15:55.012Z,7.55
2023-02-28T02:18:47.070Z,7.66
2023-02-28T02:21:42.707Z,7.71
2023-02-28T02:24:49.898Z,7.86
2023-02-28T02:27:48.622Z,7.80
2023-02-28T02:30:22.189Z,7.86
2023-02-28T02:33:38.846Z,7.95
2023-02-28T02:36:14.056Z,7.77
2023-02-28T02:39:25.168Z,7.83
2023-02-28T02:41:55.309Z,7.64
2023-02-28T02:44:38.708Z,7.86
2023-02-28T02:47:22.396Z,7.71
2023-02-28T02:49:56.667Z,7.79
2023-02-28T02:52:30.559Z,7.71
2023-02-28T02:54:59.896Z,8.10
2023-02-28T02:57:34.297Z,8.05
2023-02-28T03:00:05.750Z,7.97
2023-02-28T03:02:35.035Z,8.00
2023-02-28T03:07:55.774Z,8.03
2023-02-28T03:11:41.419Z,8.05
2023-02-28T03:14:12.310Z,8.11
2023-02-28T03:21:04.318Z,8.18
2023-02-28T03:28:12.972Z,8.10
2023-02-28T03:31:37.032Z,8.08
2023-02-28T03:35:15.512Z,8.21
2023-02-28T03:57:43.663Z,7.73
2023-02-28T04:00:47.541Z,7.76
2023-02-28T04:03:58.926Z,7.85
2023-02-28T04:06:34.451Z,7.80
2023-02-28T04:20:53.678Z,7.66
2023-02-28T05:01:48.260Z,8.68
2023-02-28T05:50:33.704Z,8.49
2023-02-28T05:53:47.558Z,8.68
2023-02-28T05:59:43.474Z,8.73
2023-02-28T06:02:27.074Z,8.76
2023-02-28T06:08:36.611Z,9.05
2023-02-28T06:12:13.473Z,9.00
2023-02-28T06:15:10.860Z,8.66
2023-02-28T06:18:11.478Z,8.79
2023-02-28T06:20:59.358Z,8.90
2023-02-28T06:23:44.709Z,9.02
2023-02-28T06:26:30.257Z,9.01
2023-02-28T06:30:15.882Z,9.06
2023-02-28T06:32:29.602Z,8.97
2023-02-28T06:35:27.129Z,8.89
2023-02-28T06:42:15.498Z,8.72
2023-02-28T06:48:09.319Z,9.13
2023-02-28T06:51:24.734Z,9.09
2023-02-28T06:54:27.395Z,9.01
2023-02-28T06:57:17.898Z,9.05
2023-02-28T07:00:15.947Z,9.08
2023-02-28T07:03:12.366Z,8.71
2023-02-28T07:08:47.964Z,8.30
2023-02-28T07:11:44.199Z,8.33
2023-02-28T07:15:08.063Z,8.21
2023-02-28T07:17:38.175Z,8.32
2023-02-28T07:20:14.764Z,8.39
2023-02-28T07:22:45.090Z,8.46
2023-02-28T07:25:15.094Z,8.40
2023-02-28T07:27:45.504Z,8.41
2023-02-28T07:30:15.313Z,8.42
2023-02-28T07:32:49.657Z,8.33
2023-02-28T07:35:23.496Z,8.23
2023-02-28T07:37:55.430Z,8.40
2023-02-28T07:40:29.523Z,8.55
2023-02-28T07:43:02.361Z,8.65
2023-02-28T07:45:33.606Z,8.70
2023-02-28T07:48:07.891Z,8.77
2023-02-28T07:50:41.467Z,8.76
2023-02-28T07:53:14.217Z,8.48
2023-02-28T07:55:45.709Z,8.53
2023-02-28T07:58:15.417Z,8.49
2023-02-28T08:00:47.528Z,8.30
2023-02-28T08:03:21.264Z,8.26
2023-02-28T08:05:57.141Z,8.14
2023-02-28T08:08:33.172Z,8.24
2023-02-28T08:11:08.294Z,8.26
2023-02-28T08:13:38.506Z,8.36
2023-02-28T08:16:13.876Z,8.44
2023-02-28T08:18:45.977Z,8.44
2023-02-28T08:21:15.574Z,8.45
2023-02-28T08:23:49.429Z,8.53
2023-02-28T08:26:20.360Z,8.57
2023-02-28T08:28:50.857Z,8.57
2023-02-28T08:31:25.227Z,8.66
2023-02-28T08:34:00.888Z,8.67
2023-02-28T08:36:37.211Z,8.40
2023-02-28T08:39:07.057Z,8.41
2023-02-28T08:41:37.435Z,8.41
2023-02-28T08:44:07.531Z,8.37
2023-02-28T08:46:38.465Z,8.19
2023-02-28T08:49:09.338Z,8.24
2023-02-28T08:51:41.362Z,8.28
2023-02-28T08:54:11.086Z,8.17
2023-02-28T08:56:41.369Z,8.00
2023-02-28T08:59:11.432Z,8.04
2023-02-28T09:01:44.211Z,8.02
2023-02-28T09:04:17.119Z,7.97
2023-02-28T09:06:52.568Z,7.93
2023-02-28T09:09:21.997Z,8.06
2023-02-28T09:11:51.960Z,8.02
2023-02-28T09:14:22.690Z,8.02
2023-02-28T09:16:52.532Z,7.97
2023-02-28T09:19:22.607Z,7.92
2023-02-28T09:21:54.389Z,7.96
2023-02-28T09:24:25.352Z,8.07
2023-02-28T09:27:04.543Z,8.12
2023-02-28T09:29:38.176Z,7.95
2023-02-28T09:32:09.857Z,8.05
2023-02-28T09:34:41.451Z,7.98
2023-02-28T09:37:10.875Z,7.89
2023-02-28T09:39:41.612Z,7.85
2023-02-28T09:42:19.713Z,7.86
2023-02-28T09:44:50.746Z,8.05
2023-02-28T09:47:44.532Z,8.15
2023-02-28T09:50:28.102Z,8.11
2023-02-28T09:53:01.941Z,8.09
2023-02-28T09:55:45.024Z,8.10
2023-02-28T09:58:25.779Z,8.02
2023-02-28T10:01:05.171Z,7.98
2023-02-28T10:03:40.628Z,7.93
2023-02-28T10:06:14.409Z,7.83
2023-02-28T10:08:58.113Z,7.88
2023-02-28T10:11:33.292Z,8.09
2023-02-28T10:14:07.580Z,7.96
2023-02-28T10:16:47.867Z,7.99
2023-02-28T10:19:23.948Z,7.95
2023-02-28T10:21:58.702Z,7.93
2023-02-28T10:24:41.698Z,7.85
2023-02-28T10:27:26.453Z,7.99
2023-02-28T10:30:02.243Z,7.77
2023-02-28T10:32:36.647Z,7.68
2023-02-28T10:35:24.703Z,7.74
2023-02-28T10:38:02.372Z,7.73
2023-02-28T10:40:34.245Z,7.59
2023-02-28T10:43:18.896Z,7.32
2023-02-28T10:46:30.708Z,7.32
2023-02-28T10:49:09.712Z,7.34
2023-02-28T10:51:41.314Z,7.24
2023-02-28T10:54:37.167Z,7.27
2023-02-28T10:57:27.582Z,7.13
2023-02-28T11:00:14.660Z,6.96
2023-02-28T11:02:48.826Z,6.65
2023-02-28T11:05:34.410Z,6.62
2023-02-28T11:08:07.850Z,6.55
2023-02-28T11:10:37.067Z,6.45
2023-02-28T11:13:11.129Z,6.31
2023-02-28T11:15:42.667Z,6.58
2023-02-28T11:18:42.490Z,6.56
2023-02-28T11:21:18.976Z,6.27
2023-02-28T11:23:51.127Z,6.39
2023-02-28T11:26:41.278Z,6.38
2023-02-28T11:29:22.411Z,6.17
2023-02-28T11:32:06.360Z,6.34
2023-02-28T11:34:36.966Z,6.01
2023-02-28T11:37:07.675Z,5.90
2023-02-28T11:39:39.235Z,5.99
2023-02-28T11:42:11.060Z,6.08
2023-02-28T11:44:51.912Z,6.07
2023-02-28T11:47:37.788Z,6.27
2023-02-28T11:50:31.847Z,6.25
2023-02-28T11:53:09.986Z,6.05
2023-02-28T11:56:10.837Z,5.92
2023-02-28T11:59:01.829Z,6.19
2023-02-28T12:01:56.663Z,6.29
2023-02-28T12:04:32.238Z,6.52
2023-02-28T12:07:23.187Z,6.70
2023-02-28T12:10:20.520Z,6.75
2023-02-28T12:13:17.195Z,6.89
2023-02-28T12:16:05.558Z,6.74
2023-02-28T12:18:40.237Z,6.50
2023-02-28T12:21:09.960Z,6.40
2023-02-28T12:23:48.019Z,6.19
2023-02-28T12:26:18.497Z,6.15
2023-02-28T12:28:48.259Z,5.93
2023-02-28T12:31:38.152Z,5.95
2023-02-28T12:34:14.736Z,5.97
2023-02-28T12:36:48.016Z,6.16
2023-02-28T12:39:20.914Z,6.05
2023-02-28T12:41:55.549Z,6.14
2023-02-28T12:44:43.204Z,6.26
2023-02-28T12:47:20.553Z,6.25
2023-02-28T12:49:50.473Z,6.05
2023-02-28T12:52:21.983Z,5.85
2023-02-28T12:54:54.330Z,5.87
2023-02-28T12:57:30.404Z,5.77
2023-02-28T13:00:03.237Z,5.73
2023-02-28T13:02:51.623Z,5.62
2023-02-28T13:05:28.523Z,5.57
2023-02-28T13:08:06.137Z,5.41
2023-02-28T13:10:45.996Z,5.46
2023-02-28T13:13:21.798Z,5.45
2023-02-28T13:16:02.060Z,5.30
2023-02-28T13:18:47.516Z,5.28
2023-02-28T13:21:31.413Z,5.28
2023-02-28T13:24:36.250Z,5.31
2023-02-28T13:27:08.660Z,5.49
2023-02-28T13:29:40.289Z,5.52
2023-02-28T13:32:10.119Z,5.64
2023-02-28T13:34:43.797Z,5.47
2023-02-28T13:37:22.273Z,5.49
2023-02-28T13:39:58.107Z,5.54
2023-02-28T13:42:38.733Z,5.58
2023-02-28T13:45:08.324Z,5.63
2023-02-28T13:47:38.818Z,5.60
2023-02-28T13:50:27.737Z,5.51
2023-02-28T13:53:22.017Z,5.36
2023-02-28T13:56:12.704Z,5.29
2023-02-28T13:58:42.239Z,5.15
2023-02-28T14:01:12.553Z,5.04
2023-02-28T14:03:47.934Z,5.21
2023-02-28T14:06:24.038Z,5.26
2023-02-28T14:12:25.991Z,5.25
2023-02-28T14:15:02.261Z,5.15
2023-02-28T14:17:34.109Z,5.25
2023-02-28T14:20:16.974Z,5.30
2023-02-28T14:22:55.303Z,5.22
2023-02-28T14:25:28.742Z,5.27
2023-02-28T14:28:01.064Z,5.42
2023-02-28T14:30:58.977Z,5.53
2023-02-28T14:33:31.524Z,5.55
2023-02-28T14:36:20.775Z,5.67
2023-02-28T14:39:01.747Z,5.68
2023-02-28T14:41:39.035Z,5.84
2023-02-28T14:44:24.003Z,5.95
2023-02-28T14:46:57.263Z,5.89
2023-02-28T14:49:31.914Z,6.06
2023-02-28T14:52:14.250Z,6.00
2023-02-28T14:54:44.314Z,5.91
2023-02-28T14:57:44.281Z,5.75
2023-02-28T15:00:18.911Z,5.72
2023-02-28T15:02:51.063Z,5.73
2023-02-28T15:05:24.274Z,5.93
2023-02-28T15:08:03.175Z,6.03
2023-02-28T15:10:32.901Z,6.14
2023-02-28T15:13:10.169Z,6.16
2023-02-28T15:16:02.294Z,6.10
2023-02-28T15:18:43.768Z,6.12
2023-02-28T15:21:24.879Z,6.37
2023-02-28T15:24:04.006Z,6.38
2023-02-28T15:26:35.507Z,6.42
2023-02-28T15:29:09.185Z,6.30
2023-02-28T15:31:57.330Z,6.51
2023-02-28T15:34:44.008Z,6.56
2023-02-28T15:37:35.742Z,6.72
2023-02-28T15:40:10.217Z,6.80
2023-02-28T15:42:39.176Z,6.75
2023-02-28T15:45:31.096Z,6.82
2023-02-28T15:48:16.961Z,6.67
2023-02-28T15:50:46.560Z,6.79
2023-02-28T15:53:17.676Z,6.69
2023-02-28T15:55:48.928Z,6.78
2023-02-28T15:58:18.569Z,6.93
2023-02-28T16:00:53.979Z,7.05
2023-02-28T16:03:24.457Z,7.05
2023-02-28T16:06:14.630Z,7.07
2023-02-28T16:08:46.417Z,7.11
2023-02-28T16:11:15.879Z,7.33
2023-02-28T16:13:45.389Z,7.35
2023-02-28T16:16:23.493Z,7.43
2023-02-28T16:18:52.695Z,7.31
2023-02-28T16:21:25.007Z,7.39
2023-02-28T16:23:55.679Z,7.53
2023-02-28T16:26:26.136Z,7.50
2023-02-28T16:28:56.459Z,7.55
2023-02-28T16:31:33.539Z,7.62
2023-02-28T16:34:15.172Z,7.50
2023-02-28T16:36:47.040Z,7.55
2023-02-28T16:39:17.225Z,7.43
2023-02-28T16:41:50.299Z,7.60
2023-02-28T16:44:32.713Z,7.66
2023-02-28T16:47:03.398Z,7.71
2023-02-28T16:49:32.840Z,7.64
2023-02-28T16:52:01.880Z,7.60
2023-02-28T16:54:33.303Z,7.58
2023-02-28T16:57:02.896Z,7.64
2023-02-28T16:59:34.260Z,7.64
2023-02-28T17:02:07.319Z,7.66
2023-02-28T17:04:43.225Z,7.66
2023-02-28T17:07:20.832Z,7.80
2023-02-28T17:09:50.440Z,7.89
2023-02-28T17:12:26.314Z,8.02
2023-02-28T17:14:55.863Z,8.07
2023-02-28T17:17:26.284Z,8.17
2023-02-28T17:19:55.889Z,8.23
2023-02-28T17:22:29.071Z,8.09
2023-02-28T17:24:59.454Z,8.16
2023-02-28T17:27:30.049Z,8.21
2023-02-28T17:29:59.092Z,8.14
2023-02-28T17:32:31.256Z,8.24
2023-02-28T17:35:00.285Z,8.21
2023-02-28T17:37:30.340Z,8.29
2023-02-28T17:40:01.148Z,8.15
2023-02-28T17:42:32.692Z,8.32
2023-02-28T17:45:03.203Z,8.21
2023-02-28T17:47:33.240Z,8.31
2023-02-28T17:50:02.887Z,8.30
2023-02-28T17:52:48.448Z,8.37
2023-02-28T17:55:30.412Z,8.24
2023-02-28T17:58:22.097Z,8.27
2023-02-28T18:00:56.005Z,8.37
2023-02-28T18:03:27.504Z,8.39
2023-02-28T18:05:58.564Z,8.37
2023-02-28T18:08:28.605Z,8.50
2023-02-28T18:10:57.987Z,8.50
2023-02-28T18:13:29.890Z,8.34
2023-02-28T18:15:59.106Z,8.30
2023-02-28T18:18:29.135Z,8.44
2023-02-28T18:20:59.582Z,8.46
2023-02-28T18:23:44.920Z,8.53
2023-02-28T18:26:15.389Z,8.65
2023-02-28T18:28:45.726Z,8.71
2023-02-28T18:31:20.322Z,8.78
2023-02-28T18:33:51.913Z,8.73
2023-02-28T18:36:21.397Z,8.84
2023-02-28T18:38:51.342Z,8.88
2023-02-28T18:41:23.899Z,8.68
2023-02-28T18:43:54.852Z,8.75
2023-02-28T18:46:25.660Z,8.77
2023-02-28T18:48:54.973Z,8.78
2023-02-28T18:51:25.418Z,8.75
2023-02-28T18:53:56.638Z,8.83
2023-02-28T18:56:26.073Z,8.82
2023-02-28T18:58:57.160Z,8.77
2023-02-28T19:01:32.587Z,8.87
2023-02-28T19:04:02.457Z,8.86
2023-02-28T19:06:35.810Z,8.95
2023-02-28T19:09:06.359Z,8.92
2023-02-28T19:11:38.176Z,8.97
2023-02-28T19:14:10.418Z,8.94
2023-02-28T19:16:40.776Z,8.96
2023-02-28T19:19:10.224Z,9.18
2023-02-28T19:21:40.034Z,9.11
2023-02-28T19:24:09.463Z,9.02
2023-02-28T19:26:41.398Z,8.85
2023-02-28T19:29:12.599Z,9.07
2023-02-28T19:31:41.865Z,9.07
2023-02-28T19:34:12.238Z,8.94
2023-02-28T19:36:44.792Z,9.12
2023-02-28T19:39:14.390Z,9.00
2023-02-28T19:41:43.766Z,8.83
2023-02-28T19:44:12.945Z,8.73
2023-02-28T19:46:45.773Z,8.75
2023-02-28T19:49:15.083Z,8.80
2023-02-28T19:51:45.630Z,8.71
2023-02-28T19:54:16.345Z,8.61
2023-02-28T19:56:46.424Z,8.72
2023-02-28T19:59:21.306Z,8.64
2023-02-28T20:01:55.504Z,8.73
2023-02-28T20:04:24.972Z,8.75
2023-02-28T20:06:55.493Z,8.76
2023-02-28T20:09:25.297Z,8.69
2023-02-28T20:12:00.331Z,8.60
2023-02-28T20:14:30.685Z,8.46
2023-02-28T20:17:00.945Z,8.58
2023-02-28T20:19:33.865Z,8.62
2023-02-28T20:22:04.846Z,8.67
2023-02-28T20:24:35.282Z,8.60
2023-02-28T20:27:05.034Z,8.69
2023-02-28T20:29:37.620Z,8.76
2023-02-28T20:32:09.456Z,8.81
2023-02-28T20:34:38.591Z,8.86
2023-02-28T20:37:08.506Z,8.83
2023-02-28T20:39:42.595Z,8.78
2023-02-28T20:42:11.588Z,8.83
2023-02-28T20:44:42.195Z,8.86
2023-02-28T20:47:11.540Z,8.94
2023-02-28T20:49:41.243Z,9.04
2023-02-28T20:52:14.359Z,9.20
2023-02-28T20:54:45.275Z,8.94
2023-02-28T20:57:17.058Z,8.91
2023-02-28T20:59:46.329Z,8.99
2023-02-28T21:02:16.282Z,9.06
2023-02-28T21:04:45.548Z,9.10
2023-02-28T21:07:14.684Z,9.04
2023-02-28T21:09:44.210Z,9.20
2023-02-28T21:12:13.965Z,9.19
2023-02-28T21:14:43.915Z,9.16
2023-02-28T21:17:15.945Z,9.17
2023-02-28T21:19:45.745Z,9.07
2023-02-28T21:22:21.245Z,9.11
2023-02-28T21:24:50.745Z,9.20
2023-02-28T21:27:21.809Z,9.09
2023-02-28T21:29:51.469Z,9.06
2023-02-28T21:32:21.243Z,9.12
2023-02-28T21:34:54.441Z,9.31
2023-02-28T21:37:29.011Z,9.35
2023-02-28T21:40:03.097Z,9.17
2023-02-28T21:42:33.825Z,9.24
2023-02-28T21:45:07.083Z,8.92
2023-02-28T21:47:40.207Z,9.09
2023-02-28T21:50:10.553Z,9.29
2023-02-28T21:52:42.574Z,9.22
2023-02-28T21:55:20.088Z,9.20
2023-02-28T21:57:52.569Z,9.16
2023-02-28T22:00:31.145Z,9.25
2023-02-28T22:03:12.476Z,9.28
2023-02-28T22:05:51.288Z,9.33
2023-02-28T22:08:23.679Z,9.23
2023-02-28T22:10:57.960Z,9.09
2023-02-28T22:13:42.953Z,9.12
2023-02-28T22:16:15.843Z,9.07
2023-02-28T22:18:49.740Z,8.98
2023-02-28T22:21:20.101Z,8.88
2023-02-28T22:23:51.193Z,8.89
2023-02-28T22:26:25.640Z,8.93
2023-02-28T22:29:02.416Z,9.07
2023-02-28T22:31:42.775Z,8.90
2023-02-28T22:34:16.104Z,9.00
2023-02-28T22:36:45.902Z,9.07
2023-02-28T22:39:16.417Z,9.01
2023-02-28T22:41:48.946Z,9.05
2023-02-28T22:44:24.408Z,9.14
2023-02-28T22:46:55.035Z,9.24
2023-02-28T22:49:25.498Z,9.33
2023-02-28T22:51:55.098Z,9.35
2023-02-28T22:54:27.340Z,9.26
2023-02-28T22:56:58.112Z,9.27
2023-02-28T22:59:28.483Z,9.17
2023-02-28T23:02:00.337Z,9.16
2023-02-28T23:04:30.535Z,9.18
2023-02-28T23:07:03.788Z,9.23
2023-02-28T23:09:36.481Z,9.29
2023-02-28T23:12:06.155Z,9.47
2023-02-28T23:14:36.546Z,9.51
2023-02-28T23:17:06.601Z,9.41
2023-02-28T23:19:38.643Z,9.36
2023-02-28T23:22:10.608Z,9.57
2023-02-28T23:24:43.994Z,9.64
2023-02-28T23:27:15.131Z,9.55
2023-02-28T23:29:46.433Z,9.43
2023-02-28T23:32:16.045Z,9.27
2023-02-28T23:34:47.744Z,9.14
2023-02-28T23:37:19.755Z,9.29
2023-02-28T23:39:49.538Z,9.18
2023-02-28T23:46:19.366Z,9.20
2023-02-28T23:52:30.444Z,9.21
2023-02-28T23:55:44.922Z,9.18
